Terminal Aerodrome Forecast
Issued by NWS

Home | Current Version | Previous Version | Text Only | Print | Product List | Glossary Off
Versions: 1 2 3 4 5 6 7 8 9 10 11 12 13 14 15

147
FTUS43 KFGF 231735 AAA
TAFBJI
TAF AMD
KBJI 231735Z 2318/2418 13013KT P6SM BKN250
     FM232000 14014KT P6SM VCTS BKN090CB
      TEMPO 2320/2323 5SM -TSRA BKN035CB
     FM240200 VRB05KT P6SM BKN130
     FM241600 27012KT P6SM FEW035=

USA.gov is the U.S. government's official web portal to all federal, state and local government web resources and services.